This is the latest recevied weather packets stored in our database for station/object KJ5BMY-13. If no packets are shown the sender has not sent any weather packets the latest 10 day(s).
| Time | Temp. | Humidity | Pressure | Rain* | Wind** | Luminosity | Snow |
|---|---|---|---|---|---|---|---|
| 1777688245 | 15° C | 76% | 1020.2 hPa | 0 mm | - | - | - |
| 1777687942 | 15° C | 76% | 1020.4 hPa | 0 mm | - | - | - |
| 1777674003 | 18.33° C | 57% | 1017.4 hPa | 0 mm | - | - | - |
| 1777673095 | 18.33° C | 58% | 1017.4 hPa | 0 mm | - | - | - |
| 1777670967 | 18.33° C | 55% | 1017.5 hPa | 0 mm | - | - | - |
| 1777669452 | 18.33° C | 56% | 1017.6 hPa | 0 mm | - | - | - |
| 1777668846 | 18.89° C | 56% | 1017.8 hPa | 0 mm | - | - | - |
| 1777667329 | 18.89° C | 57% | 1018 hPa | 0 mm | - | - | - |
| 1777666420 | 19.44° C | 54% | 1018.5 hPa | 0 mm | - | - | - |
| 1777666116 | 19.44° C | 54% | 1018.4 hPa | 0 mm | - | - | - |
| 1777665813 | 19.44° C | 54% | 1018.3 hPa | 0 mm | - | - | - |
| 1777665207 | 18.33° C | 55% | 1017.9 hPa | 0 mm | - | - | - |
| 1777664903 | 18.33° C | 55% | 1017.8 hPa | 0 mm | - | - | - |
| 1777664295 | 18.89° C | 54% | 1017.6 hPa | 0 mm | - | - | - |
| 1777663995 | 18.89° C | 54% | 1017.8 hPa | 0 mm | - | - | - |
| 1777662783 | 17.78° C | 54% | 1017.5 hPa | 0 mm | - | - | - |
| 1777661263 | 18.33° C | 54% | 1017.5 hPa | 0 mm | - | - | - |
| 1777660654 | 18.33° C | 57% | 1017.8 hPa | 0 mm | - | - | - |
| 1777660352 | 18.33° C | 57% | 1018 hPa | 0 mm | - | - | - |
| 1777660048 | 18.33° C | 56% | 1018.1 hPa | 0 mm | - | - | - |
| 1777659745 | 18.33° C | 56% | 1018.4 hPa | 0 mm | - | - | - |
| 1777659442 | 18.33° C | 55% | 1018.2 hPa | 0 mm | - | - | - |
| 1777659139 | 18.89° C | 55% | 1018.4 hPa | 0 mm | - | - | - |
| 1777658837 | 19.44° C | 56% | 1018.5 hPa | 0 mm | - | - | - |
| 1777657018 | 18.89° C | 56% | 1018.7 hPa | 0 mm | - | - | - |
* Rain latest hour (hover to see other rain measurements)
** Current wind speed in m/s (hover to see current wind gust speed)